createdAt,value
2018-12-31T00:02:06.661Z,2.50
2018-12-31T00:04:37.667Z,2.20
2018-12-31T00:07:10.317Z,2.30
2018-12-31T00:09:38.749Z,2.00
2018-12-31T00:12:07.396Z,2.00
2018-12-31T00:14:37.298Z,2.40
2018-12-31T00:17:05.717Z,2.10
2018-12-31T00:19:39.688Z,2.03
2018-12-31T00:22:12.501Z,2.57
2018-12-31T00:24:45.687Z,2.10
2018-12-31T00:27:23.256Z,2.10
2018-12-31T00:29:52.749Z,2.20
2018-12-31T00:32:21.281Z,2.63
2018-12-31T00:34:57.118Z,2.30
2018-12-31T00:37:26.830Z,2.20
2018-12-31T00:39:55.836Z,2.00
2018-12-31T00:42:25.386Z,1.90
2018-12-31T00:44:53.820Z,2.10
2018-12-31T00:47:22.795Z,1.90
2018-12-31T00:49:54.595Z,2.17
2018-12-31T00:52:33.463Z,1.73
2018-12-31T00:55:04.851Z,2.00
2018-12-31T00:57:33.821Z,2.20
2018-12-31T01:00:05.012Z,1.73
2018-12-31T01:02:34.789Z,2.20
2018-12-31T01:05:04.608Z,2.00
2018-12-31T01:07:33.273Z,2.03
2018-12-31T01:10:03.476Z,1.60
2018-12-31T01:12:31.890Z,5.50
2018-12-31T01:15:00.315Z,1.97
2018-12-31T01:17:31.913Z,2.83
2018-12-31T01:20:02.034Z,2.40
2018-12-31T01:22:32.908Z,2.57
2018-12-31T01:25:02.980Z,2.17
2018-12-31T01:27:34.255Z,1.83
2018-12-31T01:30:06.393Z,1.90
2018-12-31T01:32:38.037Z,1.90
2018-12-31T01:35:12.488Z,1.93
2018-12-31T01:37:45.058Z,2.27
2018-12-31T01:40:15.129Z,3.17
2018-12-31T01:42:50.251Z,2.10
2018-12-31T01:45:21.584Z,3.07
2018-12-31T01:47:52.612Z,1.80
2018-12-31T01:50:27.533Z,2.13
2018-12-31T01:52:58.624Z,1.90
2018-12-31T01:55:27.555Z,2.17
2018-12-31T01:57:58.625Z,2.00
2018-12-31T02:00:31.765Z,1.83
2018-12-31T02:03:02.125Z,2.27
2018-12-31T02:05:30.812Z,1.73
2018-12-31T02:08:03.886Z,1.97
2018-12-31T02:10:35.345Z,2.00
2018-12-31T02:13:04.818Z,1.60
2018-12-31T02:15:33.225Z,1.70
2018-12-31T02:18:02.687Z,2.03
2018-12-31T02:20:38.442Z,2.07
2018-12-31T02:23:14.289Z,1.97
2018-12-31T02:25:43.530Z,1.70
2018-12-31T02:28:13.273Z,3.13
2018-12-31T02:30:41.861Z,2.17
2018-12-31T02:33:12.002Z,1.70
2018-12-31T02:35:40.407Z,1.97
2018-12-31T02:38:08.827Z,1.87
2018-12-31T02:40:39.995Z,1.70
2018-12-31T02:43:10.055Z,1.90
2018-12-31T02:45:41.391Z,1.50
2018-12-31T02:48:14.120Z,1.90
2018-12-31T02:50:44.151Z,2.03
2018-12-31T02:53:13.155Z,1.80
2018-12-31T02:55:41.565Z,1.80
2018-12-31T02:58:11.006Z,1.97
2018-12-31T03:00:39.532Z,1.50
2018-12-31T03:03:07.984Z,1.60
2018-12-31T03:05:42.359Z,1.73
2018-12-31T03:08:11.827Z,2.27
2018-12-31T03:10:42.151Z,1.70
2018-12-31T03:13:12.062Z,1.50
2018-12-31T03:15:49.185Z,1.77
2018-12-31T03:18:25.741Z,1.50
2018-12-31T03:20:55.790Z,1.60
2018-12-31T03:23:24.218Z,1.70
2018-12-31T03:25:57.764Z,1.60
2018-12-31T03:28:33.315Z,1.60
2018-12-31T03:31:04.575Z,1.53
2018-12-31T03:33:39.291Z,1.83
2018-12-31T03:36:08.272Z,1.50
2018-12-31T03:38:47.589Z,1.60
2018-12-31T03:41:17.139Z,1.47
2018-12-31T03:43:50.862Z,1.63
2018-12-31T03:46:19.270Z,2.40
2018-12-31T03:48:49.691Z,1.40
2018-12-31T03:51:18.212Z,1.53
2018-12-31T03:53:47.121Z,1.50
2018-12-31T03:56:15.547Z,1.70
2018-12-31T03:58:48.311Z,1.50
2018-12-31T04:01:20.348Z,1.50
2018-12-31T04:03:49.824Z,1.60
2018-12-31T04:06:18.234Z,1.50
2018-12-31T04:08:49.612Z,1.50
2018-12-31T04:11:19.055Z,1.90
2018-12-31T04:13:47.608Z,2.57
2018-12-31T04:16:16.288Z,1.77
2018-12-31T04:18:47.813Z,1.50
2018-12-31T04:21:18.482Z,1.60
2018-12-31T04:23:52.597Z,1.13
2018-12-31T04:26:21.946Z,2.70
2018-12-31T04:28:50.390Z,2.60
2018-12-31T04:31:20.315Z,1.37
2018-12-31T04:33:48.736Z,1.50
2018-12-31T04:36:18.917Z,1.43
2018-12-31T04:38:47.357Z,1.70
2018-12-31T04:41:16.444Z,1.73
2018-12-31T04:43:44.869Z,2.00
2018-12-31T04:46:14.568Z,1.67
2018-12-31T04:48:51.994Z,1.93
2018-12-31T04:51:23.520Z,1.23
2018-12-31T04:53:51.962Z,4.20
2018-12-31T04:56:21.748Z,1.30
2018-12-31T04:58:52.126Z,1.40
2018-12-31T05:04:10.606Z,1.50
2018-12-31T05:06:39.321Z,1.50
2018-12-31T05:09:09.458Z,1.57
2018-12-31T05:11:39.634Z,1.93
2018-12-31T05:14:08.076Z,1.80
2018-12-31T05:16:38.827Z,1.67
2018-12-31T05:19:08.078Z,1.40
2018-12-31T05:21:36.478Z,1.47
2018-12-31T05:24:05.574Z,1.63
2018-12-31T05:26:35.561Z,1.40
2018-12-31T05:29:08.369Z,1.97
2018-12-31T05:31:36.755Z,2.47
2018-12-31T05:34:09.770Z,1.23
2018-12-31T05:36:38.214Z,1.30
2018-12-31T05:39:06.965Z,2.07
2018-12-31T05:41:35.652Z,1.30
2018-12-31T05:44:09.072Z,1.30
2018-12-31T05:46:39.177Z,1.30
2018-12-31T05:49:08.454Z,1.20
2018-12-31T05:51:37.804Z,1.50
2018-12-31T05:54:06.691Z,1.40
2018-12-31T05:56:37.994Z,1.40
2018-12-31T05:59:06.418Z,1.40
2018-12-31T06:01:37.756Z,1.27
2018-12-31T06:04:06.761Z,1.27
2018-12-31T06:06:43.870Z,1.50
2018-12-31T06:09:12.776Z,1.10
2018-12-31T06:11:44.671Z,1.17
2018-12-31T06:14:14.707Z,1.10
2018-12-31T06:16:43.145Z,1.50
2018-12-31T06:19:12.108Z,1.20
2018-12-31T06:21:46.548Z,1.17
2018-12-31T06:24:25.544Z,1.10
2018-12-31T06:26:55.278Z,1.33
2018-12-31T06:29:25.709Z,1.40
2018-12-31T06:31:54.155Z,1.10
2018-12-31T06:34:23.120Z,1.40
2018-12-31T06:36:54.693Z,1.20
2018-12-31T06:39:24.739Z,1.27
2018-12-31T06:41:56.604Z,1.73
2018-12-31T06:44:25.014Z,1.07
2018-12-31T06:46:59.733Z,1.67
2018-12-31T06:49:29.577Z,1.07
2018-12-31T06:51:58.013Z,1.40
2018-12-31T06:54:32.328Z,0.90
2018-12-31T06:57:01.214Z,1.10
2018-12-31T06:59:40.760Z,1.17
2018-12-31T07:02:10.695Z,1.20
2018-12-31T07:04:45.163Z,1.30
2018-12-31T07:07:14.305Z,1.10
2018-12-31T07:09:42.831Z,1.67
2018-12-31T07:12:12.059Z,1.27
2018-12-31T07:14:40.472Z,1.27
2018-12-31T07:17:09.538Z,1.10
2018-12-31T07:19:43.086Z,1.00
2018-12-31T07:22:16.088Z,1.37
2018-12-31T07:24:45.375Z,1.30
2018-12-31T07:27:14.662Z,0.90
2018-12-31T07:29:44.677Z,1.07
2018-12-31T07:32:15.024Z,0.90
2018-12-31T07:34:47.475Z,0.90
2018-12-31T07:37:17.357Z,0.80
2018-12-31T07:39:46.871Z,1.17
2018-12-31T07:42:18.677Z,1.07
2018-12-31T07:44:48.364Z,0.93
2018-12-31T07:47:16.805Z,0.90
2018-12-31T07:49:47.823Z,0.80
2018-12-31T07:52:16.273Z,0.90
2018-12-31T07:54:44.686Z,0.90
2018-12-31T07:57:14.744Z,0.97
2018-12-31T07:59:47.794Z,1.13
2018-12-31T08:02:20.950Z,1.23
2018-12-31T08:04:50.541Z,0.90
2018-12-31T08:07:19.460Z,0.80
2018-12-31T08:09:49.540Z,1.07
2018-12-31T08:12:22.732Z,1.10
2018-12-31T08:14:59.112Z,0.80
2018-12-31T08:17:31.081Z,0.80
2018-12-31T08:20:01.725Z,1.17
2018-12-31T08:22:34.724Z,0.90
2018-12-31T08:25:03.135Z,1.20
2018-12-31T08:27:33.206Z,0.90
2018-12-31T08:30:01.619Z,1.13
2018-12-31T08:32:30.615Z,1.57
2018-12-31T08:34:59.039Z,1.10
2018-12-31T08:37:33.943Z,0.90
2018-12-31T08:40:02.360Z,1.00
2018-12-31T08:42:31.343Z,1.00
2018-12-31T08:45:03.178Z,0.70
2018-12-31T08:47:31.853Z,0.80
2018-12-31T08:50:03.493Z,0.80
2018-12-31T08:52:33.567Z,1.00
2018-12-31T08:55:04.467Z,0.90
2018-12-31T08:57:34.536Z,0.80
2018-12-31T09:00:06.209Z,1.00
2018-12-31T09:02:37.143Z,0.90
2018-12-31T09:05:06.790Z,0.90
2018-12-31T09:07:39.306Z,0.90
2018-12-31T09:10:09.047Z,1.17
2018-12-31T09:12:37.719Z,0.80
2018-12-31T09:15:07.417Z,0.90
2018-12-31T09:17:38.835Z,0.70
2018-12-31T09:20:09.697Z,0.93
2018-12-31T09:22:41.152Z,0.80
2018-12-31T09:25:12.359Z,0.90
2018-12-31T09:27:42.316Z,1.97
2018-12-31T09:30:10.750Z,1.53
2018-12-31T09:32:41.720Z,1.50
2018-12-31T09:35:12.469Z,0.80
2018-12-31T09:37:42.003Z,0.80
2018-12-31T09:40:12.101Z,1.13
2018-12-31T09:42:41.990Z,3.77
2018-12-31T09:45:10.424Z,1.33
2018-12-31T09:47:38.986Z,3.90
2018-12-31T09:50:12.099Z,1.10
2018-12-31T09:52:41.065Z,1.70
2018-12-31T09:55:11.142Z,1.03
2018-12-31T09:57:42.392Z,0.80
2018-12-31T10:00:12.763Z,2.10
2018-12-31T10:02:43.834Z,1.80
2018-12-31T10:05:18.975Z,0.73
2018-12-31T10:07:52.691Z,1.90
2018-12-31T10:10:27.646Z,1.13
2018-12-31T10:12:56.452Z,0.90
2018-12-31T10:15:25.799Z,1.10
2018-12-31T10:17:54.528Z,0.80
2018-12-31T10:20:24.454Z,1.53
2018-12-31T10:22:53.442Z,0.80
2018-12-31T10:25:23.423Z,3.33
2018-12-31T10:27:53.606Z,1.33
2018-12-31T10:30:28.243Z,0.93
2018-12-31T10:32:56.666Z,0.90
2018-12-31T10:35:27.130Z,1.63
2018-12-31T10:37:57.708Z,0.70
2018-12-31T10:40:28.622Z,0.80
2018-12-31T10:43:00.356Z,0.83
2018-12-31T10:45:29.124Z,1.17
2018-12-31T10:47:58.517Z,1.30
2018-12-31T10:50:31.369Z,0.80
2018-12-31T10:52:59.776Z,0.80
2018-12-31T10:55:28.798Z,0.80
2018-12-31T10:57:57.234Z,0.83
2018-12-31T11:00:25.678Z,0.70
2018-12-31T11:02:54.397Z,4.23
2018-12-31T11:05:22.816Z,1.73
2018-12-31T11:07:51.466Z,0.70
2018-12-31T11:10:20.491Z,0.57
2018-12-31T11:12:49.697Z,1.73
2018-12-31T11:15:19.914Z,1.20
2018-12-31T11:17:48.601Z,0.80
2018-12-31T11:20:19.322Z,1.10
2018-12-31T11:22:49.874Z,1.97
2018-12-31T11:25:19.883Z,1.67
2018-12-31T11:27:50.761Z,0.80
2018-12-31T11:30:20.334Z,0.80
2018-12-31T11:32:50.112Z,0.80
2018-12-31T11:35:18.507Z,0.73
2018-12-31T11:37:46.945Z,1.80
2018-12-31T11:40:15.633Z,1.80
2018-12-31T11:42:44.073Z,1.47
2018-12-31T11:45:12.731Z,3.57
2018-12-31T11:47:42.142Z,3.43
2018-12-31T11:50:11.107Z,1.70
2018-12-31T11:52:40.125Z,2.77
2018-12-31T11:55:08.537Z,2.57
2018-12-31T11:57:42.625Z,0.70
2018-12-31T12:00:12.777Z,2.40
2018-12-31T12:02:46.011Z,1.67
2018-12-31T12:05:15.840Z,1.27
2018-12-31T12:07:45.945Z,2.30
2018-12-31T12:10:15.990Z,1.83
2018-12-31T12:12:47.501Z,1.30
2018-12-31T12:15:17.032Z,3.20
2018-12-31T12:17:53.303Z,0.93
2018-12-31T12:20:24.334Z,0.60
2018-12-31T12:22:58.810Z,1.23
2018-12-31T12:25:27.219Z,0.70
2018-12-31T12:27:56.573Z,0.90
2018-12-31T12:30:25.753Z,2.10
2018-12-31T12:32:55.812Z,0.80
2018-12-31T12:35:24.230Z,1.27
2018-12-31T12:37:54.720Z,0.83
2018-12-31T12:40:24.765Z,0.87
2018-12-31T12:42:53.201Z,2.50
2018-12-31T12:45:21.630Z,1.97
2018-12-31T12:47:51.092Z,0.83
2018-12-31T12:50:19.776Z,0.80
2018-12-31T12:52:48.211Z,0.73
2018-12-31T12:55:16.728Z,0.77
2018-12-31T12:57:45.423Z,3.50
2018-12-31T13:00:18.877Z,0.93
2018-12-31T13:02:49.979Z,0.83
2018-12-31T13:05:18.950Z,2.40
2018-12-31T13:07:47.946Z,0.70
2018-12-31T13:10:17.380Z,1.33
2018-12-31T13:12:45.807Z,0.70
2018-12-31T13:15:18.078Z,0.53
2018-12-31T13:17:46.824Z,1.50
2018-12-31T13:20:16.266Z,0.60
2018-12-31T13:22:45.273Z,1.90
2018-12-31T13:25:13.678Z,0.80
2018-12-31T13:27:42.402Z,1.30
2018-12-31T13:30:11.104Z,0.80
2018-12-31T13:32:39.540Z,0.60
2018-12-31T13:35:07.952Z,0.80
2018-12-31T13:37:40.927Z,0.50
2018-12-31T13:40:09.450Z,0.80
2018-12-31T13:42:39.694Z,0.70
2018-12-31T13:45:12.788Z,0.80
2018-12-31T13:47:41.269Z,0.57
2018-12-31T13:50:10.009Z,2.53
2018-12-31T13:52:47.846Z,1.93
2018-12-31T13:55:16.271Z,0.80
2018-12-31T13:57:44.680Z,3.03
2018-12-31T14:00:18.631Z,0.83
2018-12-31T14:02:50.012Z,1.70
2018-12-31T14:05:25.295Z,0.90
2018-12-31T14:07:55.644Z,2.20
2018-12-31T14:10:26.973Z,0.70
2018-12-31T14:12:55.385Z,1.17
2018-12-31T14:15:25.454Z,1.30
2018-12-31T14:17:53.879Z,0.80
2018-12-31T14:20:24.034Z,1.20
2018-12-31T14:22:52.500Z,1.30
2018-12-31T14:25:23.445Z,1.53
2018-12-31T14:27:53.186Z,1.23
2018-12-31T14:30:22.424Z,0.90
2018-12-31T14:32:54.044Z,2.90
2018-12-31T14:35:24.775Z,1.03
2018-12-31T14:37:53.380Z,0.67
2018-12-31T14:40:21.804Z,0.90
2018-12-31T14:42:50.214Z,3.07
2018-12-31T14:45:19.732Z,0.80
2018-12-31T14:47:50.825Z,2.13
2018-12-31T14:50:19.252Z,1.83
2018-12-31T14:52:47.670Z,1.47
2018-12-31T14:55:19.724Z,0.70
2018-12-31T14:57:56.509Z,0.77
2018-12-31T15:00:25.411Z,1.60
2018-12-31T15:02:53.821Z,0.90
2018-12-31T15:05:22.541Z,0.70
2018-12-31T15:07:52.014Z,0.73
2018-12-31T15:10:22.099Z,0.77
2018-12-31T15:12:51.382Z,0.80
2018-12-31T15:15:21.453Z,2.67
2018-12-31T15:17:50.054Z,0.80
2018-12-31T15:20:18.785Z,0.63
2018-12-31T15:22:50.217Z,1.00
2018-12-31T15:25:19.349Z,3.23
2018-12-31T15:27:52.198Z,5.67
2018-12-31T15:30:26.117Z,4.07
2018-12-31T15:32:56.155Z,6.37
2018-12-31T15:35:26.069Z,8.13
2018-12-31T15:38:01.964Z,6.80
2018-12-31T15:40:30.404Z,8.53
2018-12-31T15:43:04.405Z,6.20
2018-12-31T15:45:36.433Z,10.67
2018-12-31T15:48:07.667Z,7.97
2018-12-31T15:50:44.696Z,7.97
2018-12-31T15:53:15.789Z,8.40
2018-12-31T15:55:48.233Z,9.30
2018-12-31T15:58:22.033Z,9.57
2018-12-31T16:00:52.201Z,10.37
2018-12-31T16:03:20.604Z,9.50
2018-12-31T16:05:51.325Z,11.37
2018-12-31T16:08:23.256Z,9.40
2018-12-31T16:10:52.898Z,13.93
2018-12-31T16:13:22.572Z,10.80
2018-12-31T16:15:55.281Z,9.43
2018-12-31T16:18:27.274Z,6.00
2018-12-31T16:20:56.849Z,5.53
2018-12-31T16:23:26.947Z,3.93
2018-12-31T16:25:55.365Z,4.70
2018-12-31T16:28:36.946Z,2.13
2018-12-31T16:31:06.639Z,4.57
2018-12-31T16:33:36.785Z,3.87
2018-12-31T16:36:06.360Z,9.57
2018-12-31T16:38:35.449Z,4.70
2018-12-31T16:41:04.159Z,5.57
2018-12-31T16:43:40.057Z,3.00
2018-12-31T16:46:08.179Z,5.97
2018-12-31T16:48:40.777Z,3.93
2018-12-31T16:51:15.415Z,4.23
2018-12-31T16:53:45.308Z,2.17
2018-12-31T16:56:15.286Z,3.70
2018-12-31T16:58:55.872Z,3.60
2018-12-31T17:01:27.214Z,4.10
2018-12-31T17:04:00.616Z,3.17
2018-12-31T17:06:29.038Z,2.47
2018-12-31T17:09:01.999Z,3.63
2018-12-31T17:11:31.792Z,2.10
2018-12-31T17:14:00.499Z,1.33
2018-12-31T17:16:28.913Z,1.30
2018-12-31T17:18:59.629Z,1.80
2018-12-31T17:21:28.057Z,3.77
2018-12-31T17:23:58.270Z,3.77
2018-12-31T17:26:28.298Z,1.40
2018-12-31T17:28:57.286Z,1.67
2018-12-31T17:31:28.715Z,1.67
2018-12-31T17:34:01.428Z,2.00
2018-12-31T17:36:31.826Z,2.47
2018-12-31T17:39:03.558Z,2.13
2018-12-31T17:41:32.568Z,1.30
2018-12-31T17:44:02.281Z,2.53
2018-12-31T17:46:32.604Z,1.67
2018-12-31T17:49:05.557Z,2.63
2018-12-31T17:51:34.241Z,1.50
2018-12-31T17:54:06.208Z,2.53
2018-12-31T17:56:34.641Z,4.20
2018-12-31T17:59:04.609Z,1.37
2018-12-31T18:01:35.456Z,1.20
2018-12-31T18:04:04.132Z,2.30
2018-12-31T18:06:34.651Z,1.80
2018-12-31T18:09:04.549Z,1.80
2018-12-31T18:11:33.234Z,1.23
2018-12-31T18:14:06.906Z,2.37
2018-12-31T18:16:35.304Z,3.97
2018-12-31T18:19:05.337Z,1.30
2018-12-31T18:21:34.314Z,2.33
2018-12-31T18:24:07.225Z,1.40
2018-12-31T18:26:36.140Z,1.80
2018-12-31T18:29:07.848Z,1.23
2018-12-31T18:31:38.510Z,2.63
2018-12-31T18:34:09.597Z,1.23
2018-12-31T18:36:40.000Z,1.07
2018-12-31T18:39:09.368Z,1.80
2018-12-31T18:41:39.400Z,1.97
2018-12-31T18:44:09.771Z,1.20
2018-12-31T18:46:38.187Z,0.97
2018-12-31T18:49:09.098Z,0.93
2018-12-31T18:51:37.516Z,1.10
2018-12-31T18:54:07.593Z,1.27
2018-12-31T18:56:44.865Z,1.27
2018-12-31T18:59:15.750Z,0.80
2018-12-31T19:01:47.580Z,1.00
2018-12-31T19:04:20.648Z,1.43
2018-12-31T19:06:51.119Z,1.07
2018-12-31T19:09:22.379Z,1.13
2018-12-31T19:11:50.792Z,1.00
2018-12-31T19:14:24.056Z,1.47
2018-12-31T19:16:52.459Z,1.90
2018-12-31T19:19:23.116Z,1.03
2018-12-31T19:21:54.805Z,1.00
2018-12-31T19:24:23.232Z,0.93
2018-12-31T19:26:53.390Z,1.00
2018-12-31T19:29:22.295Z,0.77
2018-12-31T19:31:52.343Z,1.70
2018-12-31T19:34:22.696Z,1.73
2018-12-31T19:36:51.109Z,1.00
2018-12-31T19:39:23.768Z,0.93
2018-12-31T19:41:53.797Z,2.40
2018-12-31T19:44:24.233Z,0.77
2018-12-31T19:46:54.387Z,1.20
2018-12-31T19:49:23.629Z,1.00
2018-12-31T19:52:00.687Z,1.03
2018-12-31T19:54:33.778Z,1.20
2018-12-31T19:57:03.211Z,1.80
2018-12-31T19:59:34.470Z,1.70
2018-12-31T20:02:07.440Z,0.90
2018-12-31T20:04:38.382Z,1.50
2018-12-31T20:07:07.987Z,1.00
2018-12-31T20:09:38.059Z,0.80
2018-12-31T20:12:07.427Z,1.20
2018-12-31T20:14:37.252Z,0.90
2018-12-31T20:17:10.182Z,0.80
2018-12-31T20:19:38.867Z,1.87
2018-12-31T20:22:10.303Z,2.40
2018-12-31T20:24:41.948Z,0.90
2018-12-31T20:27:13.017Z,1.47
2018-12-31T20:29:43.872Z,3.60
2018-12-31T20:32:18.514Z,0.93
2018-12-31T20:34:48.372Z,1.60
2018-12-31T20:37:20.331Z,1.10
2018-12-31T20:39:49.864Z,2.10
2018-12-31T20:42:22.237Z,2.80
2018-12-31T20:44:53.808Z,1.20
2018-12-31T20:47:23.363Z,1.17
2018-12-31T20:49:54.560Z,1.30
2018-12-31T20:52:25.460Z,2.17
2018-12-31T20:54:53.897Z,1.30
2018-12-31T20:57:24.097Z,1.27
2018-12-31T20:59:54.174Z,1.30
2018-12-31T21:02:24.524Z,1.43
2018-12-31T21:04:54.145Z,2.53
2018-12-31T21:07:24.321Z,2.33
2018-12-31T21:09:52.752Z,1.10
2018-12-31T21:12:21.467Z,1.20
2018-12-31T21:14:49.910Z,2.03
2018-12-31T21:17:18.804Z,1.33
2018-12-31T21:19:47.245Z,1.10
2018-12-31T21:22:16.600Z,1.43
2018-12-31T21:24:45.326Z,0.90
2018-12-31T21:27:13.720Z,1.00
2018-12-31T21:29:42.153Z,1.63
2018-12-31T21:32:10.629Z,1.37
2018-12-31T21:34:38.971Z,1.97
2018-12-31T21:37:08.757Z,1.37
2018-12-31T21:39:38.193Z,1.00
2018-12-31T21:42:06.622Z,2.97
2018-12-31T21:44:35.035Z,1.10
2018-12-31T21:47:03.463Z,1.80
2018-12-31T21:49:32.961Z,2.37
2018-12-31T21:52:04.777Z,1.20
2018-12-31T21:54:37.546Z,1.57
2018-12-31T21:57:06.240Z,1.00
2018-12-31T21:59:34.659Z,1.20
2018-12-31T22:02:04.566Z,1.63
2018-12-31T22:04:32.962Z,1.17
2018-12-31T22:07:01.388Z,0.90
2018-12-31T22:09:29.791Z,1.23
2018-12-31T22:11:58.227Z,1.40
2018-12-31T22:14:27.940Z,1.10
2018-12-31T22:19:49.782Z,1.40
2018-12-31T22:22:19.628Z,1.20
2018-12-31T22:24:48.313Z,1.33
2018-12-31T22:27:16.747Z,0.90
2018-12-31T22:29:52.253Z,0.97
2018-12-31T22:32:20.695Z,1.20
2018-12-31T22:34:49.726Z,0.87
2018-12-31T22:37:18.100Z,1.40
2018-12-31T22:39:50.293Z,1.00
2018-12-31T22:42:19.893Z,1.07
2018-12-31T22:44:48.297Z,2.00
2018-12-31T22:47:18.719Z,1.30
2018-12-31T22:49:48.889Z,3.10
2018-12-31T22:52:17.329Z,1.20
2018-12-31T22:54:45.838Z,1.63
2018-12-31T22:57:15.909Z,1.03
2018-12-31T22:59:44.320Z,1.57
2018-12-31T23:02:12.753Z,1.33
2018-12-31T23:04:41.405Z,1.40
2018-12-31T23:07:11.460Z,1.30
2018-12-31T23:09:41.384Z,1.20
2018-12-31T23:12:09.983Z,1.00
2018-12-31T23:14:38.395Z,1.10
2018-12-31T23:17:06.837Z,2.20
2018-12-31T23:19:41.631Z,1.27
2018-12-31T23:22:08.373Z,1.17
2018-12-31T23:24:38.427Z,1.27
2018-12-31T23:27:09.101Z,1.10
2018-12-31T23:29:39.945Z,1.90
2018-12-31T23:32:10.004Z,1.40
2018-12-31T23:34:39.251Z,1.30
2018-12-31T23:37:07.684Z,1.10
2018-12-31T23:39:36.101Z,2.13
2018-12-31T23:42:10.497Z,1.30
2018-12-31T23:44:39.154Z,2.60
2018-12-31T23:47:08.384Z,3.10
2018-12-31T23:49:36.791Z,1.67
2018-12-31T23:52:06.234Z,4.47
2018-12-31T23:54:34.653Z,2.70
2018-12-31T23:57:05.024Z,2.17
2018-12-31T23:59:33.439Z,6.10
